Strawberry, CA

6:13 AM PDT on August 28, 2014 (GMT -0700)
Columbia Airport | Change Station
CLOSE
Current Station
Airport
Location: Columbia Airport,
Elevation: 2119 ft
Nearby Weather Stations

Elev 2119 ft 38.03 °N, 120.41 °W | Updated 18 minutes ago

Mostly Cloudy
Mostly Cloudy
59 °F
Feels Like 59 °F
N
0
Wind Variable Wind from North

Today
High -- | Low -- °F
--% Chance of Precip.
Yesterday
High -- | Low -- °F
Precip. -- in
6:26 AM 7:35 PM
Waxing Crescent, 8% visible
Pressure 30.07 in
Visibility 10.0 miles
Clouds Mostly Cloudy 4700 ft
Dew Point 45 °F
Humidity 59%
Rainfall 0.00 in
Snow Depth Not available.
UV 0 out of 12
Pollen 8.50 out of 12
Ozone Unhealthy for Sensitive Groups
Flu Activity Not available.
METAR KO22 281255Z AUTO 00000KT 10SM BKN047 15/07 A3007 RMK AO1

More Conditions Fewer Conditions

Pressure 30.07 in
Visibility 10.0 miles
Clouds Mostly Cloudy 4700 ft
Dew Point 45 °F
Humidity 59%
Rainfall 0.00 in
Snow Depth Not available.
UV 0 out of 12
Pollen 8.50 out of 12
Ozone Unhealthy for Sensitive Groups
Flu Activity Not available.
METAR KO22 281255Z AUTO 00000KT 10SM BKN047 15/07 A3007 RMK AO1

More Conditions Fewer Conditions

10-Day Weather Forecast

Almanac

Astronomy

Aug. 28, 2014 Rise Set
Actual Time 6:26 AM PDT 7:35 PM PDT
Civil Twilight 5:59 AM PDT 8:02 PM PDT
Nautical Twilight 5:26 AM PDT 8:34 PM PDT
Astronomical Twilight 4:52 AM PDT 9:08 PM PDT
Moon 9:20 AM PDT 9:05 PM PDT
Length of Visible Light 14h 03m
Length of Day
13h 09m
Tomorrow will be 2m 21s shorter.
Waxing Crescent, 8% of the Moon is Illuminated
Today
Waxing Crescent
Sep 2
First Quarter
Sep 8
Full
Sep 15
Last Quarter
Sep 24
New

Today's Extremes

State Highs State Lows

Community

WunderPhotos

Upload Photos

1,747,947 photos uploaded!

Nearby

Air Quality

  Air Quality AQ Index Pollutant
Yesterday Unhealthy for Sensitive Groups
OZONE
Current Unhealthy for Sensitive Groups
OZONE
Thursday Moderate
OZONE
Friday Moderate
OZONE
Saturday Moderate
OZONE

Snow Depth

Station Depth Elevation
Leavitt Lake 0 in 9400 ft
Leavitt Meadows 1 in 7200 ft
Blue Lakes 0 in 8000 ft
Summit Meadow 1 in 9122 ft
Forestdale Creek 0 in 8029 ft

Earthquake Activity

City Distance Mag. Time & Date
Soledad, California 129 miles 2.6 12:15 PM PDT
2014-08-26
Minimum magnitude displayed is 2.5.

Coastal Water Temperatures

Place Temperature
No Stations Reporting

Nearby Weather Stations